createdAt,value
2022-11-05T00:02:06.937Z,100575.84
2022-11-05T00:04:56.263Z,100611.03
2022-11-05T00:07:51.367Z,100628.30
2022-11-05T00:10:28.019Z,100632.33
2022-11-05T00:13:16.837Z,100630.09
2022-11-05T00:16:04.610Z,100619.45
2022-11-05T00:18:32.351Z,100598.84
2022-11-05T00:21:01.732Z,100599.02
2022-11-05T00:23:47.368Z,100612.84
2022-11-05T00:26:14.941Z,100577.18
2022-11-05T00:28:44.125Z,100576.10
2022-11-05T00:31:14.733Z,100594.46
2022-11-05T00:33:43.784Z,100611.63
2022-11-05T00:36:11.562Z,100633.77
2022-11-05T00:38:41.817Z,100647.49
2022-11-05T00:41:09.183Z,100644.64
2022-11-05T00:43:56.237Z,100647.33
2022-11-05T00:46:33.046Z,100635.00
2022-11-05T00:49:19.205Z,100633.61
2022-11-05T00:51:47.166Z,100618.25
2022-11-05T00:54:15.403Z,100618.61
2022-11-05T00:56:42.872Z,100604.13
2022-11-05T00:59:14.030Z,100600.40
2022-11-05T01:01:44.256Z,100601.65
2022-11-05T01:04:11.298Z,100611.98
2022-11-05T01:06:39.467Z,100625.71
2022-11-05T01:09:07.461Z,100625.79
2022-11-05T01:11:40.362Z,100624.20
2022-11-05T01:14:17.659Z,100623.48
2022-11-05T01:16:48.728Z,100622.27
2022-11-05T01:19:15.774Z,100615.13
2022-11-05T01:21:45.822Z,100605.96
2022-11-05T01:24:13.626Z,100608.64
2022-11-05T01:26:40.731Z,100604.77
2022-11-05T01:29:07.907Z,100595.39
2022-11-05T01:31:35.363Z,100591.84
2022-11-05T01:34:02.591Z,100583.86
2022-11-05T01:36:32.492Z,100572.18
2022-11-05T01:39:08.449Z,100555.37
2022-11-05T01:41:35.860Z,100554.98
2022-11-05T01:44:03.661Z,100555.41
2022-11-05T01:46:39.314Z,100558.46
2022-11-05T01:49:31.208Z,100554.33
2022-11-05T01:52:02.086Z,100544.41
2022-11-05T01:54:33.135Z,100531.63
2022-11-05T01:57:08.604Z,100521.01
2022-11-05T01:59:41.051Z,100526.77
2022-11-05T02:02:08.314Z,100529.12
2022-11-05T02:04:40.881Z,100530.90
2022-11-05T02:07:16.084Z,100531.59
2022-11-05T02:09:50.016Z,100519.44
2022-11-05T02:12:18.952Z,100501.98
2022-11-05T02:14:47.069Z,100488.63
2022-11-05T02:17:43.378Z,100497.14
2022-11-05T02:20:36.026Z,100516.43
2022-11-05T02:23:22.013Z,100485.56
2022-11-05T02:26:15.167Z,100479.91
2022-11-05T02:31:57.156Z,100493.42
2022-11-05T02:35:03.201Z,100510.60
2022-11-05T02:37:45.460Z,100509.06
2022-11-05T02:40:34.822Z,100515.39
2022-11-05T02:43:24.452Z,100510.24
2022-11-05T02:46:17.163Z,100498.23
2022-11-05T02:49:19.945Z,100486.96
2022-11-05T02:51:59.077Z,100494.48
2022-11-05T02:54:39.290Z,100505.98
2022-11-05T02:57:07.359Z,100507.83
2022-11-05T02:59:34.491Z,100520.29
2022-11-05T03:02:04.483Z,100532.29
2022-11-05T03:04:37.035Z,100540.23
2022-11-05T03:07:04.163Z,100553.77
2022-11-05T03:09:56.400Z,100556.27
2022-11-05T03:15:53.149Z,100557.08
2022-11-05T03:18:31.983Z,100566.89
2022-11-05T03:21:09.792Z,100558.33
2022-11-05T03:23:51.071Z,100550.93
2022-11-05T03:26:30.887Z,100566.70
2022-11-05T03:29:11.190Z,100591.00
2022-11-05T03:31:42.318Z,100594.25
2022-11-05T03:34:13.743Z,100597.02
2022-11-05T03:36:47.833Z,100602.25
2022-11-05T03:39:27.534Z,100604.69
2022-11-05T03:41:57.552Z,100607.02
2022-11-05T03:44:29.723Z,100609.58
2022-11-05T03:47:05.070Z,100612.14
2022-11-05T03:49:43.582Z,100612.66
2022-11-05T03:52:18.815Z,100617.63
2022-11-05T03:54:49.323Z,100629.10
2022-11-05T03:57:27.763Z,100628.69
2022-11-05T03:59:58.542Z,100628.07
2022-11-05T04:02:28.184Z,100623.61
2022-11-05T04:04:58.271Z,100631.10
2022-11-05T04:07:43.766Z,100640.52
2022-11-05T04:10:30.429Z,100665.56
2022-11-05T04:13:16.189Z,100697.42
2022-11-05T04:16:02.180Z,100710.52
2022-11-05T04:18:29.279Z,100692.05
2022-11-05T04:21:17.283Z,100683.44
2022-11-05T04:24:10.633Z,100681.45
2022-11-05T04:26:43.951Z,100687.12
2022-11-05T04:29:29.948Z,100677.77
2022-11-05T04:31:57.401Z,100674.04
2022-11-05T04:34:25.377Z,100673.77
2022-11-05T04:36:54.297Z,100681.17
2022-11-05T04:39:22.201Z,100680.92
2022-11-05T04:41:49.803Z,100674.43
2022-11-05T04:44:17.503Z,100680.76
2022-11-05T04:46:44.525Z,100690.19
2022-11-05T04:49:11.578Z,100694.14
2022-11-05T04:51:38.695Z,100691.85
2022-11-05T04:54:05.788Z,100687.34
2022-11-05T04:56:33.734Z,100686.23
2022-11-05T04:59:00.692Z,100695.59
2022-11-05T05:01:27.806Z,100687.89
2022-11-05T05:03:55.331Z,100676.49
2022-11-05T05:06:23.732Z,100677.09
2022-11-05T05:08:51.900Z,100661.96
2022-11-05T05:11:21.965Z,100629.52
2022-11-05T05:13:49.956Z,100578.52
2022-11-05T05:16:25.769Z,100555.14
2022-11-05T05:18:55.960Z,100542.23
2022-11-05T05:21:42.711Z,100542.88
2022-11-05T05:24:15.859Z,100565.79
2022-11-05T05:26:45.793Z,100578.58
2022-11-05T05:29:15.253Z,100586.73
2022-11-05T05:31:46.306Z,100578.36
2022-11-05T05:34:15.314Z,100570.70
2022-11-05T05:36:42.457Z,100570.48
2022-11-05T05:39:11.449Z,100575.60
2022-11-05T05:41:38.437Z,100597.02
2022-11-05T05:44:06.913Z,100597.80
2022-11-05T05:46:34.326Z,100606.65
2022-11-05T05:49:01.997Z,100584.46
2022-11-05T05:51:29.089Z,100561.85
2022-11-05T05:53:56.287Z,100573.09
2022-11-05T05:56:23.332Z,100575.60
2022-11-05T05:58:53.793Z,100588.64
2022-11-05T06:01:25.164Z,100584.34
2022-11-05T06:03:53.024Z,100583.80
2022-11-05T06:06:22.325Z,100595.73
2022-11-05T06:08:49.766Z,100592.82
2022-11-05T06:11:19.679Z,100575.80
2022-11-05T06:13:51.906Z,100588.65
2022-11-05T06:16:22.620Z,100587.41
2022-11-05T06:18:49.927Z,100583.13
2022-11-05T06:21:18.065Z,100591.94
2022-11-05T06:23:46.767Z,100585.17
2022-11-05T06:26:16.481Z,100588.10
2022-11-05T06:28:44.772Z,100591.89
2022-11-05T06:31:13.734Z,100585.02
2022-11-05T06:33:45.041Z,100589.03
2022-11-05T06:36:17.523Z,100597.44
2022-11-05T06:38:44.765Z,100605.02
2022-11-05T06:41:11.872Z,100592.58
2022-11-05T06:43:41.431Z,100601.95
2022-11-05T06:46:10.631Z,100604.69
2022-11-05T06:48:38.815Z,100606.69
2022-11-05T06:51:08.771Z,100607.77
2022-11-05T06:53:38.004Z,100607.97
2022-11-05T06:56:08.084Z,100603.70
2022-11-05T06:58:35.158Z,100604.02
2022-11-05T07:01:08.824Z,100600.09
2022-11-05T07:03:37.015Z,100605.77
2022-11-05T07:06:06.450Z,100613.55
2022-11-05T07:08:35.670Z,100598.48
2022-11-05T07:11:05.089Z,100589.44
2022-11-05T07:13:32.422Z,100589.45
2022-11-05T07:16:03.375Z,100589.04
2022-11-05T07:18:30.406Z,100592.58
2022-11-05T07:20:59.852Z,100595.81
2022-11-05T07:23:27.051Z,100597.71
2022-11-05T07:25:54.273Z,100593.71
2022-11-05T07:28:21.757Z,100590.21
2022-11-05T07:30:48.699Z,100595.52
2022-11-05T07:33:15.910Z,100597.31
2022-11-05T07:35:49.332Z,100601.73
2022-11-05T07:38:18.153Z,100607.55
2022-11-05T07:40:45.301Z,100612.46
2022-11-05T07:43:12.497Z,100611.56
2022-11-05T07:45:39.837Z,100609.09
2022-11-05T07:48:07.484Z,100601.74
2022-11-05T07:50:38.332Z,100601.67
2022-11-05T07:53:07.905Z,100596.82
2022-11-05T07:55:35.721Z,100596.45
2022-11-05T07:58:03.748Z,100613.92
2022-11-05T08:00:31.199Z,100621.22
2022-11-05T08:03:15.430Z,100624.16
2022-11-05T08:05:46.190Z,100621.66
2022-11-05T08:08:15.646Z,100631.17
2022-11-05T08:10:44.269Z,100622.99
2022-11-05T08:13:13.139Z,100620.20
2022-11-05T08:15:41.375Z,100619.00
2022-11-05T08:18:13.510Z,100629.35
2022-11-05T08:20:43.201Z,100633.41
2022-11-05T08:23:11.547Z,100639.56
2022-11-05T08:25:42.190Z,100638.16
2022-11-05T08:28:13.745Z,100639.29
2022-11-05T08:30:42.268Z,100647.43
2022-11-05T08:33:12.076Z,100641.42
2022-11-05T08:35:41.196Z,100631.67
2022-11-05T08:38:13.886Z,100635.94
2022-11-05T08:40:41.850Z,100635.77
2022-11-05T08:43:11.508Z,100630.58
2022-11-05T08:45:39.392Z,100629.48
2022-11-05T08:48:08.397Z,100631.46
2022-11-05T08:50:37.342Z,100632.30
2022-11-05T08:53:05.712Z,100633.88
2022-11-05T08:55:38.716Z,100639.95
2022-11-05T08:58:10.757Z,100650.41
2022-11-05T09:00:40.544Z,100656.96
2022-11-05T09:03:09.944Z,100656.59
2022-11-05T09:05:41.913Z,100656.74
2022-11-05T09:08:15.059Z,100654.84
2022-11-05T09:10:45.524Z,100657.38
2022-11-05T09:13:18.764Z,100654.72
2022-11-05T09:15:48.731Z,100652.70
2022-11-05T09:18:18.473Z,100647.71
2022-11-05T09:20:46.797Z,100654.93
2022-11-05T09:23:16.214Z,100656.96
2022-11-05T09:25:54.334Z,100654.30
2022-11-05T09:28:23.611Z,100650.04
2022-11-05T09:30:57.020Z,100643.77
2022-11-05T09:33:26.958Z,100638.23
2022-11-05T09:36:03.527Z,100629.92
2022-11-05T09:38:35.559Z,100633.42
2022-11-05T09:41:12.792Z,100628.21
2022-11-05T09:43:58.753Z,100623.15
2022-11-05T09:49:27.072Z,100618.27
2022-11-05T09:51:57.695Z,100612.54
2022-11-05T09:54:28.844Z,100617.60
2022-11-05T09:56:56.623Z,100616.23
2022-11-05T09:59:41.441Z,100607.52
2022-11-05T10:02:30.507Z,100603.60
2022-11-05T10:05:09.163Z,100599.77
2022-11-05T10:07:51.505Z,100598.76
2022-11-05T10:10:41.895Z,100592.20
2022-11-05T10:13:37.305Z,100593.11
2022-11-05T10:28:45.671Z,100550.72
2022-11-05T10:31:16.561Z,100549.56
2022-11-05T10:33:50.441Z,100551.77
2022-11-05T10:36:43.404Z,100553.05
2022-11-05T10:39:23.839Z,100554.87
2022-11-05T10:42:15.655Z,100553.73
2022-11-05T10:44:47.982Z,100553.92
2022-11-05T10:47:52.607Z,100548.34
2022-11-05T10:50:23.440Z,100542.71
2022-11-05T10:53:00.510Z,100543.64
2022-11-05T10:55:46.862Z,100541.66
2022-11-05T10:58:13.953Z,100537.73
2022-11-05T11:00:48.452Z,100534.42
2022-11-05T11:03:35.339Z,100535.54
2022-11-05T11:06:07.933Z,100530.04
2022-11-05T11:08:43.447Z,100527.44
2022-11-05T11:11:13.741Z,100522.54
2022-11-05T11:13:58.063Z,100520.63
2022-11-05T11:16:28.640Z,100514.23
2022-11-05T11:18:59.880Z,100503.60
2022-11-05T11:21:32.451Z,100506.23
2022-11-05T11:24:07.223Z,100506.55
2022-11-05T11:26:40.826Z,100510.23
2022-11-05T11:29:26.290Z,100518.24
2022-11-05T11:32:00.000Z,100540.80
2022-11-05T11:34:30.790Z,100554.98
2022-11-05T11:37:07.020Z,100566.98
2022-11-05T11:39:34.909Z,100576.13
2022-11-05T11:42:29.417Z,100569.27
2022-11-05T11:44:59.445Z,100576.31
2022-11-05T11:47:36.129Z,100573.84
2022-11-05T11:50:03.424Z,100565.30
2022-11-05T11:52:39.390Z,100551.64
2022-11-05T11:55:13.066Z,100543.02
2022-11-05T11:58:07.808Z,100534.75
2022-11-05T12:00:41.194Z,100518.69
2022-11-05T12:03:24.696Z,100511.54
2022-11-05T12:06:05.724Z,100498.20
2022-11-05T12:08:35.781Z,100491.02
2022-11-05T12:11:29.286Z,100491.91
2022-11-05T12:13:56.787Z,100491.64
2022-11-05T12:16:55.964Z,100493.35
2022-11-05T12:19:44.632Z,100489.63
2022-11-05T12:22:14.702Z,100485.21
2022-11-05T12:25:09.551Z,100474.81
2022-11-05T12:28:08.068Z,100479.36
2022-11-05T12:31:03.842Z,100469.55
2022-11-05T12:33:47.626Z,100458.73
2022-11-05T12:36:53.982Z,100452.92
2022-11-05T12:39:38.730Z,100444.38
2022-11-05T12:42:54.575Z,100435.18
2022-11-05T12:45:35.883Z,100426.10
2022-11-05T12:48:29.222Z,100428.30
2022-11-05T12:51:40.610Z,100418.13
2022-11-05T12:54:48.906Z,100415.90
2022-11-05T12:57:21.144Z,100413.55
2022-11-05T12:59:56.391Z,100403.18
2022-11-05T13:02:30.774Z,100388.15
2022-11-05T13:05:01.455Z,100390.66
2022-11-05T13:07:35.689Z,100379.92
2022-11-05T13:10:22.660Z,100381.57
2022-11-05T13:13:03.839Z,100382.64
2022-11-05T13:15:49.788Z,100393.75
2022-11-05T13:18:39.934Z,100415.27
2022-11-05T13:21:10.797Z,100422.92
2022-11-05T13:23:53.441Z,100414.76
2022-11-05T13:26:33.155Z,100403.06
2022-11-05T13:29:15.174Z,100390.72
2022-11-05T13:32:15.282Z,100396.52
2022-11-05T13:34:42.472Z,100398.02
2022-11-05T13:37:30.579Z,100393.13
2022-11-05T13:40:07.441Z,100386.95
2022-11-05T13:43:02.754Z,100383.15
2022-11-05T13:45:37.221Z,100383.55
2022-11-05T13:48:28.989Z,100379.77
2022-11-05T13:51:19.352Z,100372.25
2022-11-05T13:54:02.965Z,100370.04
2022-11-05T13:56:55.269Z,100363.89
2022-11-05T14:00:01.823Z,100364.70
2022-11-05T14:02:49.432Z,100378.17
2022-11-05T14:05:38.758Z,100380.91
2022-11-05T14:11:32.673Z,100381.26
2022-11-05T14:14:08.375Z,100408.45
2022-11-05T14:17:16.553Z,100410.75
2022-11-05T14:20:12.602Z,100395.65
2022-11-05T14:22:42.216Z,100384.67
2022-11-05T14:51:38.991Z,100400.16
2022-11-05T14:54:39.106Z,100387.54
2022-11-05T14:57:06.858Z,100367.27
2022-11-05T15:00:01.848Z,100361.92
2022-11-05T15:02:38.351Z,100404.16
2022-11-05T15:05:38.315Z,100415.37
2022-11-05T15:08:25.359Z,100418.30
2022-11-05T15:10:56.848Z,100417.83
2022-11-05T15:13:52.250Z,100432.20
2022-11-05T15:16:32.740Z,100410.09
2022-11-05T15:19:10.532Z,100415.31
2022-11-05T15:21:42.161Z,100415.69
2022-11-05T15:24:14.632Z,100414.46
2022-11-05T15:27:08.381Z,100427.26
2022-11-05T15:29:50.384Z,100429.13
2022-11-05T15:32:26.940Z,100419.92
2022-11-05T15:34:57.228Z,100416.08
2022-11-05T15:37:29.730Z,100392.64
2022-11-05T15:39:59.693Z,100373.13
2022-11-05T15:42:28.729Z,100363.76
2022-11-05T15:45:00.998Z,100362.59
2022-11-05T15:47:37.315Z,100357.59
2022-11-05T15:50:14.887Z,100354.19
2022-11-05T15:52:58.675Z,100357.85
2022-11-05T15:58:25.252Z,100357.17
2022-11-05T16:00:55.940Z,100354.73
2022-11-05T16:03:33.609Z,100361.80
2022-11-05T16:06:06.131Z,100364.15
2022-11-05T16:08:46.727Z,100367.63
2022-11-05T16:11:23.312Z,100370.98
2022-11-05T16:13:52.554Z,100380.77
2022-11-05T16:16:33.110Z,100382.98
2022-11-05T16:19:01.682Z,100385.98
2022-11-05T16:21:29.871Z,100390.38
2022-11-05T16:24:00.396Z,100398.29
2022-11-05T16:29:35.677Z,100395.09
2022-11-05T16:32:16.904Z,100390.28
2022-11-05T16:34:52.025Z,100389.75
2022-11-05T16:37:24.875Z,100387.89
2022-11-05T16:39:53.505Z,100391.03
2022-11-05T16:42:24.159Z,100400.13
2022-11-05T16:44:54.095Z,100410.45
2022-11-05T16:47:23.842Z,100412.27
2022-11-05T16:49:52.648Z,100408.34
2022-11-05T16:52:23.264Z,100406.15
2022-11-05T16:54:51.983Z,100406.38
2022-11-05T16:57:35.470Z,100409.79
2022-11-05T17:00:08.929Z,100408.49
2022-11-05T17:02:37.133Z,100407.96
2022-11-05T17:05:36.330Z,100409.77
2022-11-05T17:08:06.249Z,100412.64
2022-11-05T17:10:33.653Z,100406.73
2022-11-05T17:13:05.215Z,100404.13
2022-11-05T17:15:35.934Z,100406.95
2022-11-05T17:18:05.302Z,100407.42
2022-11-05T17:20:42.114Z,100417.13
2022-11-05T17:23:13.180Z,100436.22
2022-11-05T17:25:43.456Z,100452.81
2022-11-05T17:28:11.775Z,100457.73
2022-11-05T17:30:41.745Z,100441.66
2022-11-05T17:33:11.966Z,100427.08
2022-11-05T17:35:41.411Z,100417.87
2022-11-05T17:38:13.168Z,100400.89
2022-11-05T17:40:41.910Z,100399.67
2022-11-05T17:43:10.622Z,100415.15
2022-11-05T17:45:50.560Z,100425.73
2022-11-05T17:48:19.354Z,100432.44
2022-11-05T17:50:49.492Z,100442.18
2022-11-05T17:53:18.860Z,100444.32
2022-11-05T17:55:49.404Z,100448.30
2022-11-05T17:58:16.975Z,100445.48
2022-11-05T18:00:46.168Z,100449.79
2022-11-05T18:03:14.915Z,100452.19
2022-11-05T18:05:43.214Z,100449.21
2022-11-05T18:08:11.552Z,100451.40
2022-11-05T18:10:42.718Z,100450.11
2022-11-05T18:13:11.346Z,100447.66
2022-11-05T18:15:41.614Z,100447.61
2022-11-05T18:18:09.210Z,100452.45
2022-11-05T18:20:36.584Z,100463.26
2022-11-05T18:23:05.408Z,100459.02
2022-11-05T18:25:32.836Z,100458.73
2022-11-05T18:28:01.411Z,100456.45
2022-11-05T18:30:29.110Z,100455.48
2022-11-05T18:32:56.357Z,100452.49
2022-11-05T18:35:23.568Z,100442.83
2022-11-05T18:37:51.825Z,100448.89
2022-11-05T18:40:41.448Z,100450.98
2022-11-05T18:43:10.300Z,100458.98
2022-11-05T18:45:39.425Z,100460.59
2022-11-05T18:48:07.953Z,100457.34
2022-11-05T18:50:37.115Z,100462.69
2022-11-05T18:53:05.255Z,100463.95
2022-11-05T18:55:33.257Z,100467.45
2022-11-05T18:58:00.890Z,100465.41
2022-11-05T19:00:28.477Z,100465.16
2022-11-05T19:02:56.577Z,100467.23
2022-11-05T19:05:29.382Z,100467.20
2022-11-05T19:07:57.761Z,100473.52
2022-11-05T19:10:28.673Z,100476.40
2022-11-05T19:12:56.996Z,100476.98
2022-11-05T19:15:25.242Z,100479.98
2022-11-05T19:17:53.228Z,100478.70
2022-11-05T19:20:20.716Z,100472.91
2022-11-05T19:22:53.097Z,100467.15
2022-11-05T19:25:21.268Z,100471.11
2022-11-05T19:27:49.555Z,100470.77
2022-11-05T19:30:17.522Z,100466.31
2022-11-05T19:32:46.596Z,100474.63
2022-11-05T19:35:17.484Z,100476.30
2022-11-05T19:37:45.676Z,100485.06
2022-11-05T19:40:13.538Z,100492.71
2022-11-05T19:42:41.361Z,100496.15
2022-11-05T19:45:42.813Z,100503.23
2022-11-05T19:47:57.571Z,100513.52
2022-11-05T19:50:35.969Z,100515.33
2022-11-05T19:53:08.934Z,100513.79
2022-11-05T19:55:41.190Z,100511.20
2022-11-05T19:58:09.173Z,100506.55
2022-11-05T20:00:38.890Z,100502.27
2022-11-05T20:03:07.169Z,100498.20
2022-11-05T20:05:35.701Z,100498.23
2022-11-05T20:08:03.807Z,100500.86
2022-11-05T20:10:31.861Z,100495.36
2022-11-05T20:12:59.884Z,100497.56
2022-11-05T20:15:27.179Z,100497.52
2022-11-05T20:17:56.781Z,100491.90
2022-11-05T20:20:28.553Z,100500.21
2022-11-05T20:22:56.654Z,100499.58
2022-11-05T20:25:24.900Z,100496.94
2022-11-05T20:27:52.942Z,100504.38
2022-11-05T20:30:22.455Z,100511.55
2022-11-05T20:32:57.626Z,100520.17
2022-11-05T20:35:26.290Z,100526.80
2022-11-05T20:37:54.566Z,100526.16
2022-11-05T20:40:22.871Z,100524.45
2022-11-05T20:42:53.251Z,100523.27
2022-11-05T20:45:20.685Z,100531.02
2022-11-05T20:47:49.257Z,100535.40
2022-11-05T20:50:17.463Z,100539.41
2022-11-05T20:52:45.191Z,100534.86
2022-11-05T20:55:12.940Z,100536.20
2022-11-05T20:57:40.253Z,100538.80
2022-11-05T21:00:09.124Z,100544.02
2022-11-05T21:02:38.915Z,100551.25
2022-11-05T21:05:08.300Z,100556.27
2022-11-05T21:07:41.118Z,100549.83
2022-11-05T21:10:09.173Z,100555.77
2022-11-05T21:12:50.964Z,100552.27
2022-11-05T21:15:23.467Z,100552.64
2022-11-05T21:17:51.573Z,100551.79
2022-11-05T21:20:23.472Z,100557.33
2022-11-05T21:22:51.649Z,100560.61
2022-11-05T21:25:20.221Z,100559.66
2022-11-05T21:27:50.430Z,100557.91
2022-11-05T21:30:18.464Z,100555.74
2022-11-05T21:32:47.750Z,100559.11
2022-11-05T21:35:20.109Z,100556.19
2022-11-05T21:37:48.787Z,100565.02
2022-11-05T21:40:17.015Z,100560.70
2022-11-05T21:42:44.978Z,100563.61
2022-11-05T21:45:20.037Z,100562.75
2022-11-05T21:47:48.010Z,100560.67
2022-11-05T21:50:20.839Z,100558.39
2022-11-05T21:53:08.596Z,100564.15
2022-11-05T21:55:59.334Z,100563.05
2022-11-05T21:58:52.069Z,100561.46
2022-11-05T22:01:25.793Z,100560.08
2022-11-05T22:04:00.319Z,100562.94
2022-11-05T22:06:36.469Z,100573.42
2022-11-05T22:09:07.632Z,100578.63
2022-11-05T22:11:58.215Z,100574.48
2022-11-05T22:14:27.339Z,100581.41
2022-11-05T22:16:55.286Z,100579.94
2022-11-05T22:19:28.514Z,100579.20
2022-11-05T22:21:56.175Z,100582.70
2022-11-05T22:27:22.250Z,100586.40
2022-11-05T22:29:53.841Z,100591.89
2022-11-05T22:32:33.060Z,100589.70
2022-11-05T22:35:01.974Z,100588.27
2022-11-05T22:37:31.424Z,100589.80
2022-11-05T22:40:06.368Z,100577.67
2022-11-05T22:42:33.600Z,100580.88
2022-11-05T22:45:01.384Z,100581.83
2022-11-05T22:47:28.410Z,100576.61
2022-11-05T22:49:56.313Z,100579.55
2022-11-05T22:52:30.455Z,100569.77
2022-11-05T22:55:07.544Z,100567.05
2022-11-05T22:57:40.325Z,100566.22
2022-11-05T23:00:20.272Z,100574.84
2022-11-05T23:03:09.135Z,100570.90
2022-11-05T23:06:00.777Z,100565.80
2022-11-05T23:08:55.513Z,100564.84
2022-11-05T23:11:39.036Z,100557.48
2022-11-05T23:14:10.289Z,100559.46
2022-11-05T23:17:00.540Z,100564.65
2022-11-05T23:19:47.417Z,100564.34
2022-11-05T23:22:54.106Z,100554.72
2022-11-05T23:25:39.470Z,100552.14
2022-11-05T23:28:15.613Z,100545.17
2022-11-05T23:31:04.535Z,100538.71
2022-11-05T23:33:35.918Z,100535.11
2022-11-05T23:36:28.157Z,100532.84
2022-11-05T23:38:55.238Z,100537.41
2022-11-05T23:41:42.016Z,100535.98
2022-11-05T23:44:29.431Z,100534.09
2022-11-05T23:47:16.625Z,100538.73
2022-11-05T23:49:45.083Z,100541.50
2022-11-05T23:52:14.735Z,100547.34
2022-11-05T23:54:42.387Z,100549.02
2022-11-05T23:57:12.972Z,100555.77
2022-11-05T23:59:40.772Z,100556.83
